Terminal Aerodrome Forecast
Issued by NWS

Home | Current Version | Previous Version | Text Only | Print | Product List | Glossary On
Versions: 1 2 3 4 5 6 7 8 9 10 11 12 13 14 15 16 17
000
FTUS45 KTFX 012219 AAA
TAFHVR
TAF AMD
KHVR 012219Z 0122/0218 23017G25KT P6SM BKN150
     FM020200 12007KT P6SM SKC
     FM021000 VRB06KT P6SM BKN250
     FM021700 27008KT P6SM BKN250=

USA.gov is the U.S. government's official web portal to all federal, state and local government web resources and services.